sensor_id;sensor_type;location;lat;lon;timestamp;P1;durP1;ratioP1;P2;durP2;ratioP2
7169;SDS011;3626;42.656;23.312;2022-10-01T00:00:01;11.30;;;6.78;;
7169;SDS011;3626;42.656;23.312;2022-10-01T00:00:07;11.10;;;6.60;;
7169;SDS011;3626;42.656;23.312;2022-10-01T00:00:13;10.74;;;6.46;;
7169;SDS011;3626;42.656;23.312;2022-10-01T00:00:19;11.13;;;6.40;;
7169;SDS011;3626;42.656;23.312;2022-10-01T00:00:25;11.20;;;6.53;;
7169;SDS011;3626;42.656;23.312;2022-10-01T00:00:31;11.15;;;6.60;;
7169;SDS011;3626;42.656;23.312;2022-10-01T00:00:37;11.13;;;6.72;;
7169;SDS011;3626;42.656;23.312;2022-10-01T00:00:45;11.77;;;6.90;;
7169;SDS011;3626;42.656;23.312;2022-10-01T00:00:52;13.23;;;7.13;;
7169;SDS011;3626;42.656;23.312;2022-10-01T00:00:59;12.45;;;7.10;;
7169;SDS011;3626;42.656;23.312;2022-10-01T00:01:06;13.03;;;7.33;;
7169;SDS011;3626;42.656;23.312;2022-10-01T00:01:13;13.86;;;7.52;;
7169;SDS011;3626;42.656;23.312;2022-10-01T00:01:22;15.38;;;7.60;;
7169;SDS011;3626;42.656;23.312;2022-10-01T00:01:27;17.57;;;7.60;;
7169;SDS011;3626;42.656;23.312;2022-10-01T00:01:34;17.92;;;7.54;;
7169;SDS011;3626;42.656;23.312;2022-10-01T00:01:40;17.65;;;7.35;;
7169;SDS011;3626;42.656;23.312;2022-10-01T00:01:46;17.35;;;7.25;;
7169;SDS011;3626;42.656;23.312;2022-10-01T00:01:51;17.77;;;7.57;;
7169;SDS011;3626;42.656;23.312;2022-10-01T00:01:57;17.92;;;7.57;;
7169;SDS011;3626;42.656;23.312;2022-10-01T00:02:04;18.10;;;7.70;;
7169;SDS011;3626;42.656;23.312;2022-10-01T00:02:10;17.70;;;7.70;;
7169;SDS011;3626;42.656;23.312;2022-10-01T00:02:15;16.30;;;7.60;;
7169;SDS011;3626;42.656;23.312;2022-10-01T00:02:21;14.32;;;7.55;;
7169;SDS011;3626;42.656;23.312;2022-10-01T00:02:27;12.60;;;7.50;;
7169;SDS011;3626;42.656;23.312;2022-10-01T00:02:35;12.30;;;7.43;;
7169;SDS011;3626;42.656;23.312;2022-10-01T00:02:41;12.10;;;7.42;;
7169;SDS011;3626;42.656;23.312;2022-10-01T00:02:46;11.63;;;7.37;;
7169;SDS011;3626;42.656;23.312;2022-10-01T00:02:52;10.27;;;7.07;;
7169;SDS011;3626;42.656;23.312;2022-10-01T00:02:59;10.74;;;7.12;;
7169;SDS011;3626;42.656;23.312;2022-10-01T00:03:05;12.60;;;6.75;;
7169;SDS011;3626;42.656;23.312;2022-10-01T00:03:11;13.02;;;6.82;;
7169;SDS011;3626;42.656;23.312;2022-10-01T00:03:17;13.17;;;6.93;;
7169;SDS011;3626;42.656;23.312;2022-10-01T00:03:24;13.96;;;7.08;;
7169;SDS011;3626;42.656;23.312;2022-10-01T00:03:31;13.72;;;6.97;;
7169;SDS011;3626;42.656;23.312;2022-10-01T00:03:36;13.43;;;6.90;;
7169;SDS011;3626;42.656;23.312;2022-10-01T00:03:42;14.60;;;6.88;;
7169;SDS011;3626;42.656;23.312;2022-10-01T00:03:48;15.73;;;6.80;;
7169;SDS011;3626;42.656;23.312;2022-10-01T00:03:54;15.75;;;6.90;;
7169;SDS011;3626;42.656;23.312;2022-10-01T00:04:00;14.25;;;6.80;;
7169;SDS011;3626;42.656;23.312;2022-10-01T00:04:06;12.80;;;7.00;;
7169;SDS011;3626;42.656;23.312;2022-10-01T00:04:11;13.60;;;7.23;;
7169;SDS011;3626;42.656;23.312;2022-10-01T00:04:17;13.95;;;7.25;;
7169;SDS011;3626;42.656;23.312;2022-10-01T00:04:23;13.60;;;7.22;;
7169;SDS011;3626;42.656;23.312;2022-10-01T00:04:29;14.13;;;7.40;;
7169;SDS011;3626;42.656;23.312;2022-10-01T00:04:35;14.67;;;7.50;;
7169;SDS011;3626;42.656;23.312;2022-10-01T00:04:43;14.49;;;7.67;;
7169;SDS011;3626;42.656;23.312;2022-10-01T00:04:49;13.73;;;7.75;;
7169;SDS011;3626;42.656;23.312;2022-10-01T00:04:55;13.73;;;7.70;;
7169;SDS011;3626;42.656;23.312;2022-10-01T00:05:01;13.88;;;7.80;;
7169;SDS011;3626;42.656;23.312;2022-10-01T00:05:07;14.30;;;7.87;;
7169;SDS011;3626;42.656;23.312;2022-10-01T00:05:14;13.20;;;7.60;;
7169;SDS011;3626;42.656;23.312;2022-10-01T00:05:20;12.88;;;7.63;;
7169;SDS011;3626;42.656;23.312;2022-10-01T00:05:26;12.65;;;7.57;;
7169;SDS011;3626;42.656;23.312;2022-10-01T00:05:32;12.07;;;7.43;;
7169;SDS011;3626;42.656;23.312;2022-10-01T00:05:38;11.60;;;7.35;;
7169;SDS011;3626;42.656;23.312;2022-10-01T00:05:43;10.73;;;7.30;;
7169;SDS011;3626;42.656;23.312;2022-10-01T00:05:57;10.55;;;7.35;;
7169;SDS011;3626;42.656;23.312;2022-10-01T00:06:05;10.94;;;7.28;;
7169;SDS011;3626;42.656;23.312;2022-10-01T00:06:14;13.34;;;7.60;;
7169;SDS011;3626;42.656;23.312;2022-10-01T00:06:22;14.64;;;7.53;;
7169;SDS011;3626;42.656;23.312;2022-10-01T00:06:28;14.83;;;7.40;;
7169;SDS011;3626;42.656;23.312;2022-10-01T00:06:34;15.55;;;7.50;;
7169;SDS011;3626;42.656;23.312;2022-10-01T00:06:40;16.63;;;7.50;;
7169;SDS011;3626;42.656;23.312;2022-10-01T00:06:46;17.38;;;7.55;;
7169;SDS011;3626;42.656;23.312;2022-10-01T00:06:51;17.40;;;7.60;;
7169;SDS011;3626;42.656;23.312;2022-10-01T00:06:57;17.40;;;7.70;;
7169;SDS011;3626;42.656;23.312;2022-10-01T00:07:07;14.97;;;7.50;;
7169;SDS011;3626;42.656;23.312;2022-10-01T00:07:19;13.73;;;7.28;;
7169;SDS011;3626;42.656;23.312;2022-10-01T00:07:24;13.40;;;7.20;;
7169;SDS011;3626;42.656;23.312;2022-10-01T00:07:35;13.15;;;7.18;;
7169;SDS011;3626;42.656;23.312;2022-10-01T00:07:43;11.68;;;6.91;;
7169;SDS011;3626;42.656;23.312;2022-10-01T00:07:50;12.43;;;6.63;;
7169;SDS011;3626;42.656;23.312;2022-10-01T00:07:56;13.32;;;6.53;;
7169;SDS011;3626;42.656;23.312;2022-10-01T00:08:01;13.25;;;6.35;;
7169;SDS011;3626;42.656;23.312;2022-10-01T00:08:07;13.17;;;6.27;;
7169;SDS011;3626;42.656;23.312;2022-10-01T00:08:13;12.57;;;6.27;;
7169;SDS011;3626;42.656;23.312;2022-10-01T00:08:20;12.77;;;6.40;;
7169;SDS011;3626;42.656;23.312;2022-10-01T00:08:26;12.40;;;6.35;;
7169;SDS011;3626;42.656;23.312;2022-10-01T00:08:32;13.03;;;6.60;;
7169;SDS011;3626;42.656;23.312;2022-10-01T00:08:38;13.35;;;6.60;;
7169;SDS011;3626;42.656;23.312;2022-10-01T00:08:46;12.80;;;6.60;;
7169;SDS011;3626;42.656;23.312;2022-10-01T00:08:53;11.10;;;6.50;;
7169;SDS011;3626;42.656;23.312;2022-10-01T00:08:59;11.55;;;6.57;;
7169;SDS011;3626;42.656;23.312;2022-10-01T00:09:05;12.50;;;6.50;;
7169;SDS011;3626;42.656;23.312;2022-10-01T00:09:10;12.70;;;6.53;;
7169;SDS011;3626;42.656;23.312;2022-10-01T00:09:17;12.00;;;6.28;;
7169;SDS011;3626;42.656;23.312;2022-10-01T00:09:24;12.02;;;6.28;;
7169;SDS011;3626;42.656;23.312;2022-10-01T00:09:30;11.63;;;6.18;;
7169;SDS011;3626;42.656;23.312;2022-10-01T00:09:36;11.47;;;6.30;;
7169;SDS011;3626;42.656;23.312;2022-10-01T00:09:42;11.53;;;6.27;;
7169;SDS011;3626;42.656;23.312;2022-10-01T00:09:48;11.70;;;6.28;;
7169;SDS011;3626;42.656;23.312;2022-10-01T00:09:54;10.98;;;6.20;;
7169;SDS011;3626;42.656;23.312;2022-10-01T00:09:59;10.07;;;6.10;;
7169;SDS011;3626;42.656;23.312;2022-10-01T00:10:06;9.85;;;6.00;;
7169;SDS011;3626;42.656;23.312;2022-10-01T00:10:13;9.90;;;6.10;;
7169;SDS011;3626;42.656;23.312;2022-10-01T00:10:20;9.90;;;6.12;;
7169;SDS011;3626;42.656;23.312;2022-10-01T00:10:27;9.90;;;6.17;;
7169;SDS011;3626;42.656;23.312;2022-10-01T00:10:39;10.23;;;6.20;;
7169;SDS011;3626;42.656;23.312;2022-10-01T00:10:45;10.13;;;6.43;;
7169;SDS011;3626;42.656;23.312;2022-10-01T00:10:52;10.70;;;6.65;;
7169;SDS011;3626;42.656;23.312;2022-10-01T00:10:57;11.10;;;6.93;;
7169;SDS011;3626;42.656;23.312;2022-10-01T00:11:06;10.73;;;7.22;;
7169;SDS011;3626;42.656;23.312;2022-10-01T00:11:13;10.70;;;7.60;;
7169;SDS011;3626;42.656;23.312;2022-10-01T00:11:21;11.40;;;7.80;;
7169;SDS011;3626;42.656;23.312;2022-10-01T00:11:28;11.87;;;7.80;;
7169;SDS011;3626;42.656;23.312;2022-10-01T00:11:35;12.07;;;7.83;;
7169;SDS011;3626;42.656;23.312;2022-10-01T00:11:40;12.88;;;7.80;;
7169;SDS011;3626;42.656;23.312;2022-10-01T00:11:46;14.30;;;7.67;;
7169;SDS011;3626;42.656;23.312;2022-10-01T00:11:52;14.25;;;7.57;;
7169;SDS011;3626;42.656;23.312;2022-10-01T00:11:58;14.02;;;7.43;;
7169;SDS011;3626;42.656;23.312;2022-10-01T00:12:04;14.00;;;7.38;;
7169;SDS011;3626;42.656;23.312;2022-10-01T00:12:10;13.77;;;7.10;;
7169;SDS011;3626;42.656;23.312;2022-10-01T00:12:19;14.80;;;7.00;;
7169;SDS011;3626;42.656;23.312;2022-10-01T00:12:25;14.62;;;6.72;;
7169;SDS011;3626;42.656;23.312;2022-10-01T00:12:31;14.10;;;6.63;;
7169;SDS011;3626;42.656;23.312;2022-10-01T00:12:37;15.20;;;6.50;;
7169;SDS011;3626;42.656;23.312;2022-10-01T00:12:44;15.52;;;6.64;;
7169;SDS011;3626;42.656;23.312;2022-10-01T00:12:51;14.57;;;6.97;;
7169;SDS011;3626;42.656;23.312;2022-10-01T00:12:57;14.47;;;7.07;;
7169;SDS011;3626;42.656;23.312;2022-10-01T00:13:03;14.60;;;7.25;;
7169;SDS011;3626;42.656;23.312;2022-10-01T00:13:09;14.80;;;7.30;;
7169;SDS011;3626;42.656;23.312;2022-10-01T00:13:15;15.57;;;7.38;;
7169;SDS011;3626;42.656;23.312;2022-10-01T00:13:21;14.98;;;7.70;;
7169;SDS011;3626;42.656;23.312;2022-10-01T00:13:27;14.97;;;7.80;;
7169;SDS011;3626;42.656;23.312;2022-10-01T00:13:34;13.87;;;7.93;;
7169;SDS011;3626;42.656;23.312;2022-10-01T00:13:41;12.23;;;7.87;;
7169;SDS011;3626;42.656;23.312;2022-10-01T00:13:48;12.50;;;7.90;;
7169;SDS011;3626;42.656;23.312;2022-10-01T00:13:56;14.76;;;7.84;;
7169;SDS011;3626;42.656;23.312;2022-10-01T00:14:02;16.02;;;7.70;;
7169;SDS011;3626;42.656;23.312;2022-10-01T00:14:07;16.20;;;7.80;;
7169;SDS011;3626;42.656;23.312;2022-10-01T00:14:14;15.53;;;7.80;;
7169;SDS011;3626;42.656;23.312;2022-10-01T00:14:20;16.33;;;7.75;;
7169;SDS011;3626;42.656;23.312;2022-10-01T00:14:26;16.08;;;7.68;;
7169;SDS011;3626;42.656;23.312;2022-10-01T00:14:31;16.13;;;7.70;;
7169;SDS011;3626;42.656;23.312;2022-10-01T00:14:37;16.20;;;7.63;;
7169;SDS011;3626;42.656;23.312;2022-10-01T00:14:43;16.58;;;7.65;;
7169;SDS011;3626;42.656;23.312;2022-10-01T00:14:49;15.70;;;7.43;;
7169;SDS011;3626;42.656;23.312;2022-10-01T00:14:55;15.57;;;7.38;;
7169;SDS011;3626;42.656;23.312;2022-10-01T00:15:00;15.48;;;7.40;;
7169;SDS011;3626;42.656;23.312;2022-10-01T00:15:07;16.52;;;7.50;;
7169;SDS011;3626;42.656;23.312;2022-10-01T00:15:14;16.20;;;7.50;;
7169;SDS011;3626;42.656;23.312;2022-10-01T00:15:24;15.43;;;7.53;;
7169;SDS011;3626;42.656;23.312;2022-10-01T00:15:30;16.90;;;7.50;;
7169;SDS011;3626;42.656;23.312;2022-10-01T00:15:37;17.30;;;7.67;;
7169;SDS011;3626;42.656;23.312;2022-10-01T00:15:43;16.92;;;7.50;;
7169;SDS011;3626;42.656;23.312;2022-10-01T00:15:49;16.77;;;7.50;;
7169;SDS011;3626;42.656;23.312;2022-10-01T00:15:55;14.88;;;7.35;;
7169;SDS011;3626;42.656;23.312;2022-10-01T00:16:02;15.80;;;7.30;;
7169;SDS011;3626;42.656;23.312;2022-10-01T00:16:10;14.90;;;7.03;;
7169;SDS011;3626;42.656;23.312;2022-10-01T00:16:19;14.47;;;6.80;;
7169;SDS011;3626;42.656;23.312;2022-10-01T00:16:26;13.75;;;6.72;;
7169;SDS011;3626;42.656;23.312;2022-10-01T00:16:33;12.80;;;6.74;;
7169;SDS011;3626;42.656;23.312;2022-10-01T00:16:39;12.73;;;6.53;;
7169;SDS011;3626;42.656;23.312;2022-10-01T00:16:44;13.57;;;6.85;;
7169;SDS011;3626;42.656;23.312;2022-10-01T00:16:50;13.37;;;6.93;;
7169;SDS011;3626;42.656;23.312;2022-10-01T00:16:57;12.90;;;6.90;;
7169;SDS011;3626;42.656;23.312;2022-10-01T00:17:03;12.10;;;7.07;;
7169;SDS011;3626;42.656;23.312;2022-10-01T00:17:08;12.10;;;7.28;;
7169;SDS011;3626;42.656;23.312;2022-10-01T00:17:14;11.90;;;7.20;;
7169;SDS011;3626;42.656;23.312;2022-10-01T00:17:20;11.73;;;7.10;;
7169;SDS011;3626;42.656;23.312;2022-10-01T00:17:26;12.10;;;7.10;;
7169;SDS011;3626;42.656;23.312;2022-10-01T00:17:32;14.27;;;7.28;;
7169;SDS011;3626;42.656;23.312;2022-10-01T00:17:38;14.48;;;7.50;;
7169;SDS011;3626;42.656;23.312;2022-10-01T00:17:44;14.18;;;7.47;;
7169;SDS011;3626;42.656;23.312;2022-10-01T00:17:49;14.02;;;7.30;;
7169;SDS011;3626;42.656;23.312;2022-10-01T00:17:55;13.70;;;7.37;;
7169;SDS011;3626;42.656;23.312;2022-10-01T00:18:01;12.32;;;7.28;;
7169;SDS011;3626;42.656;23.312;2022-10-01T00:18:06;12.80;;;6.97;;
7169;SDS011;3626;42.656;23.312;2022-10-01T00:18:14;13.73;;;7.00;;
7169;SDS011;3626;42.656;23.312;2022-10-01T00:18:21;14.80;;;7.10;;
7169;SDS011;3626;42.656;23.312;2022-10-01T00:18:26;14.38;;;7.20;;
7169;SDS011;3626;42.656;23.312;2022-10-01T00:18:34;12.16;;;6.84;;
7169;SDS011;3626;42.656;23.312;2022-10-01T00:18:42;11.73;;;6.83;;
7169;SDS011;3626;42.656;23.312;2022-10-01T00:18:49;11.47;;;6.70;;
7169;SDS011;3626;42.656;23.312;2022-10-01T00:18:57;11.43;;;6.63;;
7169;SDS011;3626;42.656;23.312;2022-10-01T00:19:04;11.35;;;6.70;;
7169;SDS011;3626;42.656;23.312;2022-10-01T00:19:10;10.13;;;6.80;;
7169;SDS011;3626;42.656;23.312;2022-10-01T00:19:17;9.50;;;6.80;;
7169;SDS011;3626;42.656;23.312;2022-10-01T00:19:22;9.07;;;6.80;;
7169;SDS011;3626;42.656;23.312;2022-10-01T00:19:28;8.45;;;6.63;;
7169;SDS011;3626;42.656;23.312;2022-10-01T00:19:34;9.63;;;6.60;;
7169;SDS011;3626;42.656;23.312;2022-10-01T00:19:41;10.10;;;6.54;;
7169;SDS011;3626;42.656;23.312;2022-10-01T00:19:46;11.07;;;6.50;;
7169;SDS011;3626;42.656;23.312;2022-10-01T00:19:52;12.02;;;6.53;;
7169;SDS011;3626;42.656;23.312;2022-10-01T00:19:58;12.53;;;6.57;;
7169;SDS011;3626;42.656;23.312;2022-10-01T00:20:04;13.80;;;6.60;;
7169;SDS011;3626;42.656;23.312;2022-10-01T00:20:11;15.07;;;6.60;;
7169;SDS011;3626;42.656;23.312;2022-10-01T00:20:16;15.00;;;6.53;;
7169;SDS011;3626;42.656;23.312;2022-10-01T00:20:23;15.35;;;6.70;;
7169;SDS011;3626;42.656;23.312;2022-10-01T00:20:28;16.75;;;7.05;;
7169;SDS011;3626;42.656;23.312;2022-10-01T00:20:34;15.77;;;7.20;;
7169;SDS011;3626;42.656;23.312;2022-10-01T00:20:43;14.60;;;7.23;;
7169;SDS011;3626;42.656;23.312;2022-10-01T00:20:49;14.18;;;7.40;;
7169;SDS011;3626;42.656;23.312;2022-10-01T00:20:55;15.03;;;7.50;;
7169;SDS011;3626;42.656;23.312;2022-10-01T00:21:04;14.82;;;7.43;;
7169;SDS011;3626;42.656;23.312;2022-10-01T00:21:11;13.87;;;7.41;;
7169;SDS011;3626;42.656;23.312;2022-10-01T00:21:20;15.37;;;7.53;;
7169;SDS011;3626;42.656;23.312;2022-10-01T00:21:27;18.00;;;7.27;;
7169;SDS011;3626;42.656;23.312;2022-10-01T00:21:35;18.20;;;7.00;;
7169;SDS011;3626;42.656;23.312;2022-10-01T00:21:41;18.02;;;6.90;;
7169;SDS011;3626;42.656;23.312;2022-10-01T00:21:46;18.00;;;6.78;;
7169;SDS011;3626;42.656;23.312;2022-10-01T00:21:52;17.70;;;6.70;;
7169;SDS011;3626;42.656;23.312;2022-10-01T00:21:58;16.97;;;6.60;;
7169;SDS011;3626;42.656;23.312;2022-10-01T00:22:04;16.80;;;6.55;;
7169;SDS011;3626;42.656;23.312;2022-10-01T00:22:09;17.00;;;6.50;;
7169;SDS011;3626;42.656;23.312;2022-10-01T00:22:15;16.03;;;6.23;;
7169;SDS011;3626;42.656;23.312;2022-10-01T00:22:23;14.97;;;6.30;;
7169;SDS011;3626;42.656;23.312;2022-10-01T00:22:28;12.73;;;6.32;;
7169;SDS011;3626;42.656;23.312;2022-10-01T00:22:36;12.42;;;6.40;;
7169;SDS011;3626;42.656;23.312;2022-10-01T00:22:42;12.63;;;6.50;;
7169;SDS011;3626;42.656;23.312;2022-10-01T00:22:47;12.52;;;6.50;;
7169;SDS011;3626;42.656;23.312;2022-10-01T00:22:53;11.95;;;6.43;;
7169;SDS011;3626;42.656;23.312;2022-10-01T00:22:59;11.30;;;6.33;;
7169;SDS011;3626;42.656;23.312;2022-10-01T00:23:05;11.30;;;6.47;;
7169;SDS011;3626;42.656;23.312;2022-10-01T00:23:11;9.73;;;6.43;;
7169;SDS011;3626;42.656;23.312;2022-10-01T00:23:18;9.93;;;6.60;;
7169;SDS011;3626;42.656;23.312;2022-10-01T00:23:24;9.80;;;6.60;;
7169;SDS011;3626;42.656;23.312;2022-10-01T00:23:29;9.60;;;6.53;;
7169;SDS011;3626;42.656;23.312;2022-10-01T00:23:35;9.57;;;6.50;;
7169;SDS011;3626;42.656;23.312;2022-10-01T00:23:41;10.30;;;6.60;;
7169;SDS011;3626;42.656;23.312;2022-10-01T00:23:51;10.50;;;6.75;;
7169;SDS011;3626;42.656;23.312;2022-10-01T00:24:00;11.35;;;7.03;;
7169;SDS011;3626;42.656;23.312;2022-10-01T00:24:10;11.70;;;7.00;;
7169;SDS011;3626;42.656;23.312;2022-10-01T00:24:16;13.25;;;7.17;;
7169;SDS011;3626;42.656;23.312;2022-10-01T00:24:22;13.90;;;7.10;;
7169;SDS011;3626;42.656;23.312;2022-10-01T00:24:28;14.15;;;7.00;;
7169;SDS011;3626;42.656;23.312;2022-10-01T00:24:34;13.87;;;6.90;;
7169;SDS011;3626;42.656;23.312;2022-10-01T00:24:41;12.93;;;6.77;;
7169;SDS011;3626;42.656;23.312;2022-10-01T00:24:47;12.70;;;6.70;;
7169;SDS011;3626;42.656;23.312;2022-10-01T00:24:53;12.10;;;6.60;;
7169;SDS011;3626;42.656;23.312;2022-10-01T00:24:59;11.77;;;6.57;;
7169;SDS011;3626;42.656;23.312;2022-10-01T00:25:05;12.13;;;6.60;;
7169;SDS011;3626;42.656;23.312;2022-10-01T00:25:11;12.52;;;6.68;;
7169;SDS011;3626;42.656;23.312;2022-10-01T00:25:17;10.15;;;6.43;;
7169;SDS011;3626;42.656;23.312;2022-10-01T00:25:23;10.38;;;6.53;;
7169;SDS011;3626;42.656;23.312;2022-10-01T00:25:30;10.03;;;6.50;;
7169;SDS011;3626;42.656;23.312;2022-10-01T00:25:36;10.03;;;6.50;;
7169;SDS011;3626;42.656;23.312;2022-10-01T00:25:42;10.12;;;6.50;;
7169;SDS011;3626;42.656;23.312;2022-10-01T00:25:48;11.00;;;6.40;;
7169;SDS011;3626;42.656;23.312;2022-10-01T00:26:06;12.17;;;6.50;;
7169;SDS011;3626;42.656;23.312;2022-10-01T00:26:13;11.91;;;6.55;;
7169;SDS011;3626;42.656;23.312;2022-10-01T00:26:22;11.73;;;6.65;;
7169;SDS011;3626;42.656;23.312;2022-10-01T00:26:31;12.07;;;6.97;;
7169;SDS011;3626;42.656;23.312;2022-10-01T00:26:38;12.13;;;6.93;;
7169;SDS011;3626;42.656;23.312;2022-10-01T00:26:44;12.60;;;7.00;;
7169;SDS011;3626;42.656;23.312;2022-10-01T00:26:50;11.45;;;7.05;;
7169;SDS011;3626;42.656;23.312;2022-10-01T00:26:56;10.70;;;6.90;;
7169;SDS011;3626;42.656;23.312;2022-10-01T00:27:02;10.30;;;6.60;;
7169;SDS011;3626;42.656;23.312;2022-10-01T00:27:08;9.76;;;6.50;;
7169;SDS011;3626;42.656;23.312;2022-10-01T00:27:16;9.53;;;6.40;;
7169;SDS011;3626;42.656;23.312;2022-10-01T00:27:23;9.80;;;6.40;;
7169;SDS011;3626;42.656;23.312;2022-10-01T00:27:29;9.17;;;6.10;;
7169;SDS011;3626;42.656;23.312;2022-10-01T00:27:35;9.15;;;6.20;;
7169;SDS011;3626;42.656;23.312;2022-10-01T00:27:43;9.60;;;6.33;;
7169;SDS011;3626;42.656;23.312;2022-10-01T00:27:49;10.00;;;6.48;;
7169;SDS011;3626;42.656;23.312;2022-10-01T00:27:55;10.50;;;6.57;;
7169;SDS011;3626;42.656;23.312;2022-10-01T00:28:01;10.88;;;6.72;;
7169;SDS011;3626;42.656;23.312;2022-10-01T00:28:07;11.02;;;6.75;;
7169;SDS011;3626;42.656;23.312;2022-10-01T00:28:13;11.33;;;6.87;;
7169;SDS011;3626;42.656;23.312;2022-10-01T00:28:18;11.38;;;7.07;;
7169;SDS011;3626;42.656;23.312;2022-10-01T00:28:24;11.67;;;7.23;;
7169;SDS011;3626;42.656;23.312;2022-10-01T00:28:30;11.90;;;7.40;;
7169;SDS011;3626;42.656;23.312;2022-10-01T00:28:36;11.82;;;7.30;;
7169;SDS011;3626;42.656;23.312;2022-10-01T00:28:43;11.52;;;7.25;;
7169;SDS011;3626;42.656;23.312;2022-10-01T00:28:52;11.70;;;7.20;;
7169;SDS011;3626;42.656;23.312;2022-10-01T00:29:00;13.27;;;7.30;;
7169;SDS011;3626;42.656;23.312;2022-10-01T00:29:09;13.27;;;7.37;;
7169;SDS011;3626;42.656;23.312;2022-10-01T00:29:17;13.05;;;7.47;;
7169;SDS011;3626;42.656;23.312;2022-10-01T00:29:23;12.93;;;7.50;;
7169;SDS011;3626;42.656;23.312;2022-10-01T00:29:28;12.55;;;7.40;;
7169;SDS011;3626;42.656;23.312;2022-10-01T00:29:35;13.30;;;7.50;;
7169;SDS011;3626;42.656;23.312;2022-10-01T00:29:41;13.77;;;7.55;;
7169;SDS011;3626;42.656;23.312;2022-10-01T00:29:49;13.07;;;7.80;;
7169;SDS011;3626;42.656;23.312;2022-10-01T00:29:55;13.00;;;7.80;;
7169;SDS011;3626;42.656;23.312;2022-10-01T00:30:01;12.05;;;7.80;;
7169;SDS011;3626;42.656;23.312;2022-10-01T00:30:08;12.48;;;7.90;;
7169;SDS011;3626;42.656;23.312;2022-10-01T00:30:14;13.40;;;7.77;;
7169;SDS011;3626;42.656;23.312;2022-10-01T00:30:20;13.45;;;7.65;;
7169;SDS011;3626;42.656;23.312;2022-10-01T00:30:27;14.50;;;7.65;;
7169;SDS011;3626;42.656;23.312;2022-10-01T00:30:32;15.50;;;7.78;;
7169;SDS011;3626;42.656;23.312;2022-10-01T00:30:44;14.95;;;8.13;;
7169;SDS011;3626;42.656;23.312;2022-10-01T00:30:51;15.69;;;8.16;;
7169;SDS011;3626;42.656;23.312;2022-10-01T00:30:56;15.55;;;8.27;;
7169;SDS011;3626;42.656;23.312;2022-10-01T00:31:04;15.57;;;8.40;;
7169;SDS011;3626;42.656;23.312;2022-10-01T00:31:11;15.50;;;8.40;;
7169;SDS011;3626;42.656;23.312;2022-10-01T00:31:18;16.47;;;8.60;;
7169;SDS011;3626;42.656;23.312;2022-10-01T00:31:24;16.45;;;8.75;;
7169;SDS011;3626;42.656;23.312;2022-10-01T00:31:30;15.27;;;8.93;;
7169;SDS011;3626;42.656;23.312;2022-10-01T00:31:36;14.55;;;8.50;;
7169;SDS011;3626;42.656;23.312;2022-10-01T00:31:42;14.73;;;8.60;;
7169;SDS011;3626;42.656;23.312;2022-10-01T00:31:48;15.05;;;8.65;;
7169;SDS011;3626;42.656;23.312;2022-10-01T00:31:54;17.10;;;8.87;;
7169;SDS011;3626;42.656;23.312;2022-10-01T00:31:59;17.98;;;8.80;;
7169;SDS011;3626;42.656;23.312;2022-10-01T00:32:06;17.70;;;8.60;;
7169;SDS011;3626;42.656;23.312;2022-10-01T00:32:14;17.17;;;8.80;;
7169;SDS011;3626;42.656;23.312;2022-10-01T00:32:20;16.70;;;8.88;;
7169;SDS011;3626;42.656;23.312;2022-10-01T00:32:25;18.48;;;8.75;;
7169;SDS011;3626;42.656;23.312;2022-10-01T00:32:31;20.83;;;8.68;;
7169;SDS011;3626;42.656;23.312;2022-10-01T00:32:37;20.80;;;8.70;;
7169;SDS011;3626;42.656;23.312;2022-10-01T00:32:45;19.62;;;8.67;;
7169;SDS011;3626;42.656;23.312;2022-10-01T00:32:51;18.30;;;8.57;;
7169;SDS011;3626;42.656;23.312;2022-10-01T00:32:58;15.77;;;8.17;;
7169;SDS011;3626;42.656;23.312;2022-10-01T00:33:03;16.33;;;8.02;;
7169;SDS011;3626;42.656;23.312;2022-10-01T00:33:09;16.63;;;8.07;;
7169;SDS011;3626;42.656;23.312;2022-10-01T00:33:15;18.00;;;7.90;;
7169;SDS011;3626;42.656;23.312;2022-10-01T00:33:21;18.65;;;7.93;;
7169;SDS011;3626;42.656;23.312;2022-10-01T00:33:26;17.20;;;8.00;;
7169;SDS011;3626;42.656;23.312;2022-10-01T00:33:32;15.73;;;7.70;;
7169;SDS011;3626;42.656;23.312;2022-10-01T00:33:38;15.90;;;7.78;;
7169;SDS011;3626;42.656;23.312;2022-10-01T00:33:44;16.00;;;7.63;;
7169;SDS011;3626;42.656;23.312;2022-10-01T00:33:51;16.57;;;7.60;;
7169;SDS011;3626;42.656;23.312;2022-10-01T00:33:58;16.98;;;7.72;;
7169;SDS011;3626;42.656;23.312;2022-10-01T00:34:06;16.53;;;7.80;;
7169;SDS011;3626;42.656;23.312;2022-10-01T00:34:15;14.57;;;7.80;;
7169;SDS011;3626;42.656;23.312;2022-10-01T00:34:21;14.77;;;7.70;;
7169;SDS011;3626;42.656;23.312;2022-10-01T00:34:26;13.75;;;7.50;;
7169;SDS011;3626;42.656;23.312;2022-10-01T00:34:32;13.35;;;7.63;;
7169;SDS011;3626;42.656;23.312;2022-10-01T00:34:38;13.45;;;7.60;;
7169;SDS011;3626;42.656;23.312;2022-10-01T00:34:44;13.25;;;7.60;;
7169;SDS011;3626;42.656;23.312;2022-10-01T00:34:50;12.97;;;7.50;;
7169;SDS011;3626;42.656;23.312;2022-10-01T00:34:56;12.75;;;7.45;;
7169;SDS011;3626;42.656;23.312;2022-10-01T00:35:02;12.30;;;7.40;;
7169;SDS011;3626;42.656;23.312;2022-10-01T00:35:13;12.48;;;7.26;;
7169;SDS011;3626;42.656;23.312;2022-10-01T00:35:19;11.38;;;7.20;;
7169;SDS011;3626;42.656;23.312;2022-10-01T00:35:26;11.97;;;7.37;;
7169;SDS011;3626;42.656;23.312;2022-10-01T00:35:32;13.07;;;7.40;;
7169;SDS011;3626;42.656;23.312;2022-10-01T00:35:38;13.38;;;7.43;;
7169;SDS011;3626;42.656;23.312;2022-10-01T00:35:44;13.47;;;7.50;;
7169;SDS011;3626;42.656;23.312;2022-10-01T00:35:52;13.15;;;7.35;;
7169;SDS011;3626;42.656;23.312;2022-10-01T00:35:58;13.12;;;7.30;;
7169;SDS011;3626;42.656;23.312;2022-10-01T00:36:04;13.48;;;7.20;;
7169;SDS011;3626;42.656;23.312;2022-10-01T00:36:10;13.00;;;7.10;;
7169;SDS011;3626;42.656;23.312;2022-10-01T00:36:16;12.55;;;6.90;;
7169;SDS011;3626;42.656;23.312;2022-10-01T00:36:21;12.87;;;6.90;;
7169;SDS011;3626;42.656;23.312;2022-10-01T00:36:28;13.17;;;6.77;;
7169;SDS011;3626;42.656;23.312;2022-10-01T00:36:35;12.62;;;6.43;;
7169;SDS011;3626;42.656;23.312;2022-10-01T00:36:41;12.77;;;6.15;;
7169;SDS011;3626;42.656;23.312;2022-10-01T00:36:48;15.10;;;6.33;;
7169;SDS011;3626;42.656;23.312;2022-10-01T00:36:54;15.30;;;6.43;;
7169;SDS011;3626;42.656;23.312;2022-10-01T00:36:59;15.30;;;6.53;;
7169;SDS011;3626;42.656;23.312;2022-10-01T00:37:05;16.33;;;6.70;;
7169;SDS011;3626;42.656;23.312;2022-10-01T00:37:13;17.98;;;6.83;;
7169;SDS011;3626;42.656;23.312;2022-10-01T00:37:19;19.48;;;7.00;;
7169;SDS011;3626;42.656;23.312;2022-10-01T00:37:26;17.98;;;7.10;;
7169;SDS011;3626;42.656;23.312;2022-10-01T00:37:32;17.33;;;7.17;;
7169;SDS011;3626;42.656;23.312;2022-10-01T00:37:39;17.33;;;7.42;;
7169;SDS011;3626;42.656;23.312;2022-10-01T00:37:46;15.90;;;7.44;;
7169;SDS011;3626;42.656;23.312;2022-10-01T00:37:54;15.23;;;7.43;;
7169;SDS011;3626;42.656;23.312;2022-10-01T00:38:00;15.23;;;7.40;;
7169;SDS011;3626;42.656;23.312;2022-10-01T00:38:06;14.20;;;7.50;;
7169;SDS011;3626;42.656;23.312;2022-10-01T00:38:12;13.17;;;7.57;;
7169;SDS011;3626;42.656;23.312;2022-10-01T00:38:19;12.22;;;7.58;;
7169;SDS011;3626;42.656;23.312;2022-10-01T00:38:26;11.80;;;7.40;;
7169;SDS011;3626;42.656;23.312;2022-10-01T00:38:33;12.53;;;7.30;;
7169;SDS011;3626;42.656;23.312;2022-10-01T00:38:39;11.80;;;7.20;;
7169;SDS011;3626;42.656;23.312;2022-10-01T00:38:45;12.00;;;7.20;;
7169;SDS011;3626;42.656;23.312;2022-10-01T00:38:52;12.50;;;7.00;;
7169;SDS011;3626;42.656;23.312;2022-10-01T00:39:04;12.31;;;6.84;;
7169;SDS011;3626;42.656;23.312;2022-10-01T00:39:10;12.15;;;6.47;;
7169;SDS011;3626;42.656;23.312;2022-10-01T00:39:16;12.80;;;6.47;;
7169;SDS011;3626;42.656;23.312;2022-10-01T00:39:22;13.60;;;6.50;;
7169;SDS011;3626;42.656;23.312;2022-10-01T00:39:28;13.77;;;6.63;;